sensor_id;sensor_type;location;lat;lon;timestamp;P1;durP1;ratioP1;P2;durP2;ratioP2
69226;SDS011;56334;52.398;7.552;2023-03-23T00:02:05;10.35;;;4.30;;
69226;SDS011;56334;52.398;7.552;2023-03-23T00:04:31;16.20;;;6.03;;
69226;SDS011;56334;52.398;7.552;2023-03-23T00:06:57;14.18;;;5.35;;
69226;SDS011;56334;52.398;7.552;2023-03-23T00:09:27;14.18;;;5.75;;
69226;SDS011;56334;52.398;7.552;2023-03-23T00:11:55;14.15;;;5.03;;
69226;SDS011;56334;52.398;7.552;2023-03-23T00:14:31;10.60;;;4.97;;
69226;SDS011;56334;52.398;7.552;2023-03-23T00:17:06;12.77;;;4.93;;
69226;SDS011;56334;52.398;7.552;2023-03-23T00:19:34;10.85;;;4.35;;
69226;SDS011;56334;52.398;7.552;2023-03-23T00:22:09;12.55;;;4.90;;
69226;SDS011;56334;52.398;7.552;2023-03-23T00:24:36;11.60;;;4.75;;
69226;SDS011;56334;52.398;7.552;2023-03-23T00:27:03;13.48;;;4.45;;
69226;SDS011;56334;52.398;7.552;2023-03-23T00:29:29;10.98;;;4.68;;
69226;SDS011;56334;52.398;7.552;2023-03-23T00:31:57;13.93;;;4.10;;
69226;SDS011;56334;52.398;7.552;2023-03-23T00:34:24;13.10;;;5.20;;
69226;SDS011;56334;52.398;7.552;2023-03-23T00:36:53;13.48;;;4.65;;
69226;SDS011;56334;52.398;7.552;2023-03-23T00:39:21;11.00;;;3.95;;
69226;SDS011;56334;52.398;7.552;2023-03-23T00:41:49;10.75;;;4.57;;
69226;SDS011;56334;52.398;7.552;2023-03-23T00:44:15;12.23;;;4.22;;
69226;SDS011;56334;52.398;7.552;2023-03-23T00:46:42;14.25;;;4.65;;
69226;SDS011;56334;52.398;7.552;2023-03-23T00:49:10;10.65;;;3.78;;
69226;SDS011;56334;52.398;7.552;2023-03-23T00:51:37;11.95;;;4.18;;
69226;SDS011;56334;52.398;7.552;2023-03-23T00:54:06;10.40;;;4.60;;
69226;SDS011;56334;52.398;7.552;2023-03-23T00:56:32;11.05;;;4.32;;
69226;SDS011;56334;52.398;7.552;2023-03-23T00:59:00;10.65;;;3.70;;
69226;SDS011;56334;52.398;7.552;2023-03-23T01:03:52;12.80;;;4.20;;
69226;SDS011;56334;52.398;7.552;2023-03-23T01:06:27;9.50;;;3.58;;
69226;SDS011;56334;52.398;7.552;2023-03-23T01:08:55;9.25;;;3.58;;
69226;SDS011;56334;52.398;7.552;2023-03-23T01:11:23;10.07;;;3.85;;
69226;SDS011;56334;52.398;7.552;2023-03-23T01:13:49;10.38;;;4.30;;
69226;SDS011;56334;52.398;7.552;2023-03-23T01:16:16;11.00;;;4.10;;
69226;SDS011;56334;52.398;7.552;2023-03-23T01:18:43;9.38;;;3.50;;
69226;SDS011;56334;52.398;7.552;2023-03-23T01:21:10;11.25;;;4.03;;
69226;SDS011;56334;52.398;7.552;2023-03-23T01:23:37;12.70;;;3.90;;
69226;SDS011;56334;52.398;7.552;2023-03-23T01:31:05;14.38;;;4.35;;
69226;SDS011;56334;52.398;7.552;2023-03-23T01:35:58;15.40;;;4.72;;
69226;SDS011;56334;52.398;7.552;2023-03-23T01:38:27;13.45;;;4.93;;
69226;SDS011;56334;52.398;7.552;2023-03-23T01:40:53;11.52;;;4.65;;
69226;SDS011;56334;52.398;7.552;2023-03-23T01:43:19;12.25;;;4.65;;
69226;SDS011;56334;52.398;7.552;2023-03-23T01:45:46;14.93;;;5.10;;
69226;SDS011;56334;52.398;7.552;2023-03-23T01:48:15;13.52;;;5.65;;
69226;SDS011;56334;52.398;7.552;2023-03-23T01:53:28;13.25;;;5.50;;
69226;SDS011;56334;52.398;7.552;2023-03-23T01:55:56;11.48;;;4.53;;
69226;SDS011;56334;52.398;7.552;2023-03-23T01:58:24;12.82;;;4.88;;
69226;SDS011;56334;52.398;7.552;2023-03-23T02:00:52;13.77;;;5.00;;
69226;SDS011;56334;52.398;7.552;2023-03-23T02:03:19;11.70;;;5.20;;
69226;SDS011;56334;52.398;7.552;2023-03-23T02:05:45;12.15;;;4.90;;
69226;SDS011;56334;52.398;7.552;2023-03-23T02:08:13;13.05;;;5.90;;
69226;SDS011;56334;52.398;7.552;2023-03-23T02:10:39;14.20;;;5.50;;
69226;SDS011;56334;52.398;7.552;2023-03-23T02:13:07;12.00;;;4.40;;
69226;SDS011;56334;52.398;7.552;2023-03-23T02:31:15;11.13;;;4.18;;
69226;SDS011;56334;52.398;7.552;2023-03-23T02:36:48;11.45;;;4.78;;
69226;SDS011;56334;52.398;7.552;2023-03-23T02:39:19;10.57;;;4.60;;
69226;SDS011;56334;52.398;7.552;2023-03-23T02:41:53;11.60;;;4.30;;
69226;SDS011;56334;52.398;7.552;2023-03-23T02:44:21;12.52;;;5.28;;
69226;SDS011;56334;52.398;7.552;2023-03-23T02:46:47;13.50;;;5.40;;
69226;SDS011;56334;52.398;7.552;2023-03-23T02:49:14;12.60;;;5.45;;
69226;SDS011;56334;52.398;7.552;2023-03-23T02:51:40;13.73;;;5.28;;
69226;SDS011;56334;52.398;7.552;2023-03-23T02:54:07;9.95;;;4.10;;
69226;SDS011;56334;52.398;7.552;2023-03-23T02:56:35;13.35;;;5.55;;
69226;SDS011;56334;52.398;7.552;2023-03-23T02:59:01;12.00;;;5.13;;
69226;SDS011;56334;52.398;7.552;2023-03-23T03:03:53;12.25;;;5.28;;
69226;SDS011;56334;52.398;7.552;2023-03-23T03:06:27;14.60;;;6.13;;
69226;SDS011;56334;52.398;7.552;2023-03-23T03:09:02;13.52;;;5.95;;
69226;SDS011;56334;52.398;7.552;2023-03-23T03:11:31;13.85;;;6.45;;
69226;SDS011;56334;52.398;7.552;2023-03-23T03:14:04;14.52;;;6.30;;
69226;SDS011;56334;52.398;7.552;2023-03-23T03:19:07;14.98;;;5.63;;
69226;SDS011;56334;52.398;7.552;2023-03-23T03:21:37;13.02;;;5.53;;
69226;SDS011;56334;52.398;7.552;2023-03-23T03:24:05;13.40;;;5.85;;
69226;SDS011;56334;52.398;7.552;2023-03-23T03:26:36;12.48;;;5.15;;
69226;SDS011;56334;52.398;7.552;2023-03-23T03:29:02;12.48;;;5.95;;
69226;SDS011;56334;52.398;7.552;2023-03-23T03:31:31;13.85;;;5.68;;
69226;SDS011;56334;52.398;7.552;2023-03-23T03:33:58;11.93;;;5.30;;
69226;SDS011;56334;52.398;7.552;2023-03-23T03:36:28;11.88;;;5.47;;
69226;SDS011;56334;52.398;7.552;2023-03-23T03:38:59;11.07;;;5.57;;
69226;SDS011;56334;52.398;7.552;2023-03-23T03:41:26;13.02;;;4.85;;
69226;SDS011;56334;52.398;7.552;2023-03-23T03:43:52;11.93;;;5.28;;
69226;SDS011;56334;52.398;7.552;2023-03-23T03:46:18;13.57;;;4.95;;
69226;SDS011;56334;52.398;7.552;2023-03-23T03:48:44;11.25;;;5.15;;
69226;SDS011;56334;52.398;7.552;2023-03-23T03:51:11;11.38;;;5.30;;
69226;SDS011;56334;52.398;7.552;2023-03-23T03:53:37;12.90;;;4.90;;
69226;SDS011;56334;52.398;7.552;2023-03-23T03:56:03;12.50;;;5.13;;
69226;SDS011;56334;52.398;7.552;2023-03-23T03:58:30;12.68;;;4.90;;
69226;SDS011;56334;52.398;7.552;2023-03-23T04:00:59;12.07;;;4.82;;
69226;SDS011;56334;52.398;7.552;2023-03-23T04:03:26;9.93;;;4.20;;
69226;SDS011;56334;52.398;7.552;2023-03-23T04:05:55;11.10;;;4.72;;
69226;SDS011;56334;52.398;7.552;2023-03-23T04:08:22;12.38;;;5.07;;
69226;SDS011;56334;52.398;7.552;2023-03-23T04:10:49;11.05;;;4.70;;
69226;SDS011;56334;52.398;7.552;2023-03-23T04:13:15;10.50;;;3.40;;
69226;SDS011;56334;52.398;7.552;2023-03-23T04:15:41;10.48;;;4.45;;
69226;SDS011;56334;52.398;7.552;2023-03-23T04:18:07;14.00;;;4.93;;
69226;SDS011;56334;52.398;7.552;2023-03-23T04:20:33;12.20;;;4.78;;
69226;SDS011;56334;52.398;7.552;2023-03-23T04:23:00;10.13;;;4.20;;
69226;SDS011;56334;52.398;7.552;2023-03-23T04:25:28;10.40;;;4.65;;
69226;SDS011;56334;52.398;7.552;2023-03-23T04:27:57;10.90;;;4.60;;
69226;SDS011;56334;52.398;7.552;2023-03-23T04:30:26;11.13;;;4.85;;
69226;SDS011;56334;52.398;7.552;2023-03-23T04:32:52;11.18;;;4.47;;
69226;SDS011;56334;52.398;7.552;2023-03-23T04:35:21;11.48;;;3.67;;
69226;SDS011;56334;52.398;7.552;2023-03-23T04:40:13;10.05;;;3.78;;
69226;SDS011;56334;52.398;7.552;2023-03-23T04:42:40;11.20;;;3.92;;
69226;SDS011;56334;52.398;7.552;2023-03-23T04:45:11;11.68;;;3.92;;
69226;SDS011;56334;52.398;7.552;2023-03-23T04:47:38;14.75;;;4.20;;
69226;SDS011;56334;52.398;7.552;2023-03-23T04:50:10;9.90;;;3.90;;
69226;SDS011;56334;52.398;7.552;2023-03-23T04:52:39;10.65;;;4.13;;
69226;SDS011;56334;52.398;7.552;2023-03-23T04:55:10;10.82;;;4.25;;
69226;SDS011;56334;52.398;7.552;2023-03-23T04:57:37;11.88;;;4.00;;
69226;SDS011;56334;52.398;7.552;2023-03-23T05:00:03;10.30;;;3.63;;
69226;SDS011;56334;52.398;7.552;2023-03-23T05:02:36;10.30;;;3.70;;
69226;SDS011;56334;52.398;7.552;2023-03-23T05:05:08;11.45;;;4.40;;
69226;SDS011;56334;52.398;7.552;2023-03-23T05:07:35;10.13;;;4.40;;
69226;SDS011;56334;52.398;7.552;2023-03-23T05:10:03;11.30;;;4.45;;
69226;SDS011;56334;52.398;7.552;2023-03-23T05:12:29;12.15;;;4.70;;
69226;SDS011;56334;52.398;7.552;2023-03-23T05:14:55;10.45;;;4.22;;
69226;SDS011;56334;52.398;7.552;2023-03-23T05:17:21;12.95;;;4.72;;
69226;SDS011;56334;52.398;7.552;2023-03-23T05:19:49;11.80;;;4.80;;
69226;SDS011;56334;52.398;7.552;2023-03-23T05:22:15;10.85;;;4.18;;
69226;SDS011;56334;52.398;7.552;2023-03-23T05:24:42;11.93;;;4.15;;
69226;SDS011;56334;52.398;7.552;2023-03-23T05:27:11;10.05;;;4.07;;
69226;SDS011;56334;52.398;7.552;2023-03-23T05:29:37;10.52;;;4.60;;
69226;SDS011;56334;52.398;7.552;2023-03-23T05:32:05;11.30;;;4.07;;
69226;SDS011;56334;52.398;7.552;2023-03-23T05:34:32;11.20;;;4.63;;
69226;SDS011;56334;52.398;7.552;2023-03-23T05:36:59;11.25;;;5.10;;
69226;SDS011;56334;52.398;7.552;2023-03-23T05:39:27;9.48;;;3.97;;
69226;SDS011;56334;52.398;7.552;2023-03-23T05:41:53;10.90;;;4.07;;
69226;SDS011;56334;52.398;7.552;2023-03-23T05:44:20;10.30;;;4.18;;
69226;SDS011;56334;52.398;7.552;2023-03-23T05:46:47;11.00;;;4.70;;
69226;SDS011;56334;52.398;7.552;2023-03-23T05:49:14;10.15;;;4.18;;
69226;SDS011;56334;52.398;7.552;2023-03-23T05:51:43;10.48;;;4.35;;
69226;SDS011;56334;52.398;7.552;2023-03-23T05:54:11;11.60;;;3.42;;
69226;SDS011;56334;52.398;7.552;2023-03-23T05:56:37;10.88;;;4.15;;
69226;SDS011;56334;52.398;7.552;2023-03-23T05:59:03;10.48;;;3.80;;
69226;SDS011;56334;52.398;7.552;2023-03-23T06:01:29;9.35;;;3.17;;
69226;SDS011;56334;52.398;7.552;2023-03-23T06:03:58;8.98;;;3.30;;
69226;SDS011;56334;52.398;7.552;2023-03-23T06:06:24;8.57;;;3.40;;
69226;SDS011;56334;52.398;7.552;2023-03-23T06:08:53;11.50;;;4.75;;
69226;SDS011;56334;52.398;7.552;2023-03-23T06:11:28;9.40;;;3.60;;
69226;SDS011;56334;52.398;7.552;2023-03-23T06:13:55;8.88;;;3.08;;
69226;SDS011;56334;52.398;7.552;2023-03-23T06:16:22;9.40;;;3.20;;
69226;SDS011;56334;52.398;7.552;2023-03-23T06:18:48;10.00;;;3.40;;
69226;SDS011;56334;52.398;7.552;2023-03-23T06:21:15;8.50;;;3.38;;
69226;SDS011;56334;52.398;7.552;2023-03-23T06:23:43;10.00;;;3.13;;
69226;SDS011;56334;52.398;7.552;2023-03-23T06:26:10;8.70;;;2.95;;
69226;SDS011;56334;52.398;7.552;2023-03-23T06:28:40;8.10;;;2.65;;
69226;SDS011;56334;52.398;7.552;2023-03-23T06:31:06;9.02;;;2.83;;
69226;SDS011;56334;52.398;7.552;2023-03-23T06:33:34;7.20;;;2.20;;
69226;SDS011;56334;52.398;7.552;2023-03-23T06:36:00;8.07;;;3.05;;
69226;SDS011;56334;52.398;7.552;2023-03-23T06:38:27;9.73;;;3.03;;
69226;SDS011;56334;52.398;7.552;2023-03-23T06:40:53;9.52;;;2.88;;
69226;SDS011;56334;52.398;7.552;2023-03-23T06:45:46;9.15;;;2.72;;
69226;SDS011;56334;52.398;7.552;2023-03-23T06:48:13;10.50;;;2.95;;
69226;SDS011;56334;52.398;7.552;2023-03-23T06:50:44;9.00;;;2.80;;
69226;SDS011;56334;52.398;7.552;2023-03-23T06:53:11;10.73;;;2.55;;
69226;SDS011;56334;52.398;7.552;2023-03-23T06:55:39;7.75;;;2.15;;
69226;SDS011;56334;52.398;7.552;2023-03-23T06:58:05;8.75;;;2.63;;
69226;SDS011;56334;52.398;7.552;2023-03-23T07:00:33;8.07;;;2.72;;
69226;SDS011;56334;52.398;7.552;2023-03-23T07:02:59;7.82;;;2.88;;
69226;SDS011;56334;52.398;7.552;2023-03-23T07:05:25;9.05;;;3.00;;
69226;SDS011;56334;52.398;7.552;2023-03-23T07:07:51;7.85;;;2.72;;
69226;SDS011;56334;52.398;7.552;2023-03-23T07:10:17;8.07;;;2.53;;
69226;SDS011;56334;52.398;7.552;2023-03-23T07:12:48;10.45;;;2.63;;
69226;SDS011;56334;52.398;7.552;2023-03-23T07:15:15;7.55;;;2.50;;
69226;SDS011;56334;52.398;7.552;2023-03-23T07:17:42;8.65;;;2.50;;
69226;SDS011;56334;52.398;7.552;2023-03-23T07:20:08;8.60;;;2.40;;
69226;SDS011;56334;52.398;7.552;2023-03-23T07:22:34;7.95;;;2.83;;
69226;SDS011;56334;52.398;7.552;2023-03-23T07:25:02;8.65;;;2.50;;
69226;SDS011;56334;52.398;7.552;2023-03-23T07:27:28;9.13;;;2.88;;
69226;SDS011;56334;52.398;7.552;2023-03-23T07:29:54;8.88;;;2.60;;
69226;SDS011;56334;52.398;7.552;2023-03-23T07:32:20;8.63;;;2.08;;
69226;SDS011;56334;52.398;7.552;2023-03-23T07:34:47;8.68;;;2.45;;
69226;SDS011;56334;52.398;7.552;2023-03-23T07:37:14;10.48;;;2.90;;
69226;SDS011;56334;52.398;7.552;2023-03-23T07:39:40;7.32;;;2.50;;
69226;SDS011;56334;52.398;7.552;2023-03-23T07:42:07;9.25;;;2.33;;
69226;SDS011;56334;52.398;7.552;2023-03-23T07:44:35;6.60;;;2.30;;
69226;SDS011;56334;52.398;7.552;2023-03-23T07:47:02;8.07;;;2.40;;
69226;SDS011;56334;52.398;7.552;2023-03-23T07:49:32;7.53;;;2.15;;
69226;SDS011;56334;52.398;7.552;2023-03-23T07:51:59;9.20;;;2.13;;
69226;SDS011;56334;52.398;7.552;2023-03-23T07:54:28;9.40;;;2.40;;
69226;SDS011;56334;52.398;7.552;2023-03-23T07:56:56;10.80;;;2.67;;
69226;SDS011;56334;52.398;7.552;2023-03-23T08:01:48;7.82;;;2.13;;
69226;SDS011;56334;52.398;7.552;2023-03-23T08:04:14;8.82;;;2.67;;
69226;SDS011;56334;52.398;7.552;2023-03-23T08:06:40;8.90;;;2.15;;
69226;SDS011;56334;52.398;7.552;2023-03-23T08:09:07;6.13;;;1.75;;
69226;SDS011;56334;52.398;7.552;2023-03-23T08:11:34;7.07;;;2.10;;
69226;SDS011;56334;52.398;7.552;2023-03-23T08:14:00;8.77;;;2.85;;
69226;SDS011;56334;52.398;7.552;2023-03-23T08:18:53;6.65;;;2.22;;
69226;SDS011;56334;52.398;7.552;2023-03-23T08:21:20;8.77;;;2.38;;
69226;SDS011;56334;52.398;7.552;2023-03-23T08:23:48;10.73;;;2.55;;
69226;SDS011;56334;52.398;7.552;2023-03-23T08:26:14;8.70;;;2.20;;
69226;SDS011;56334;52.398;7.552;2023-03-23T08:28:41;8.70;;;2.28;;
69226;SDS011;56334;52.398;7.552;2023-03-23T08:31:13;8.95;;;2.50;;
69226;SDS011;56334;52.398;7.552;2023-03-23T08:33:39;9.18;;;2.65;;
69226;SDS011;56334;52.398;7.552;2023-03-23T08:36:07;7.80;;;2.00;;
69226;SDS011;56334;52.398;7.552;2023-03-23T08:38:34;8.90;;;1.83;;
69226;SDS011;56334;52.398;7.552;2023-03-23T08:41:02;9.30;;;2.38;;
69226;SDS011;56334;52.398;7.552;2023-03-23T08:43:29;8.60;;;2.00;;
69226;SDS011;56334;52.398;7.552;2023-03-23T08:45:59;10.95;;;3.00;;
69226;SDS011;56334;52.398;7.552;2023-03-23T08:48:26;10.35;;;2.15;;
69226;SDS011;56334;52.398;7.552;2023-03-23T08:50:52;7.00;;;1.90;;
69226;SDS011;56334;52.398;7.552;2023-03-23T08:53:20;8.43;;;1.90;;
69226;SDS011;56334;52.398;7.552;2023-03-23T08:55:47;8.70;;;2.33;;
69226;SDS011;56334;52.398;7.552;2023-03-23T08:58:15;6.75;;;1.70;;
69226;SDS011;56334;52.398;7.552;2023-03-23T09:00:42;9.18;;;2.10;;
69226;SDS011;56334;52.398;7.552;2023-03-23T09:03:08;7.40;;;1.85;;
69226;SDS011;56334;52.398;7.552;2023-03-23T09:05:35;7.90;;;1.77;;
69226;SDS011;56334;52.398;7.552;2023-03-23T09:08:07;10.32;;;2.25;;
69226;SDS011;56334;52.398;7.552;2023-03-23T09:10:35;8.00;;;1.42;;
69226;SDS011;56334;52.398;7.552;2023-03-23T09:13:14;5.35;;;1.20;;
69226;SDS011;56334;52.398;7.552;2023-03-23T09:15:40;7.22;;;1.65;;
69226;SDS011;56334;52.398;7.552;2023-03-23T09:18:08;8.02;;;1.73;;
69226;SDS011;56334;52.398;7.552;2023-03-23T09:20:34;5.90;;;1.40;;
69226;SDS011;56334;52.398;7.552;2023-03-23T09:23:02;3.60;;;0.98;;
69226;SDS011;56334;52.398;7.552;2023-03-23T09:25:30;6.00;;;1.35;;
69226;SDS011;56334;52.398;7.552;2023-03-23T09:27:56;8.13;;;1.50;;
69226;SDS011;56334;52.398;7.552;2023-03-23T09:30:31;8.45;;;1.17;;
69226;SDS011;56334;52.398;7.552;2023-03-23T09:32:59;4.93;;;1.15;;
69226;SDS011;56334;52.398;7.552;2023-03-23T09:35:26;5.18;;;0.95;;
69226;SDS011;56334;52.398;7.552;2023-03-23T09:37:55;5.30;;;1.20;;
69226;SDS011;56334;52.398;7.552;2023-03-23T11:58:35;10.68;;;1.50;;
69226;SDS011;56334;52.398;7.552;2023-03-23T12:23:51;9.63;;;1.45;;
69226;SDS011;56334;52.398;7.552;2023-03-23T12:26:31;7.63;;;1.48;;
69226;SDS011;56334;52.398;7.552;2023-03-23T12:29:13;5.90;;;1.08;;
69226;SDS011;56334;52.398;7.552;2023-03-23T12:42:02;7.47;;;1.85;;
69226;SDS011;56334;52.398;7.552;2023-03-23T12:44:48;7.53;;;1.48;;
69226;SDS011;56334;52.398;7.552;2023-03-23T12:47:34;9.30;;;1.50;;
69226;SDS011;56334;52.398;7.552;2023-03-23T12:52:45;6.85;;;1.63;;
69226;SDS011;56334;52.398;7.552;2023-03-23T12:55:15;7.78;;;1.50;;
69226;SDS011;56334;52.398;7.552;2023-03-23T12:57:45;6.88;;;1.40;;
69226;SDS011;56334;52.398;7.552;2023-03-23T13:00:24;8.40;;;1.50;;
69226;SDS011;56334;52.398;7.552;2023-03-23T13:02:59;7.57;;;1.50;;
69226;SDS011;56334;52.398;7.552;2023-03-23T13:05:32;7.60;;;1.30;;
69226;SDS011;56334;52.398;7.552;2023-03-23T13:08:03;7.10;;;1.17;;
69226;SDS011;56334;52.398;7.552;2023-03-23T13:10:33;6.40;;;1.15;;
69226;SDS011;56334;52.398;7.552;2023-03-23T13:13:08;6.88;;;1.35;;
69226;SDS011;56334;52.398;7.552;2023-03-23T13:23:15;5.95;;;1.45;;
69226;SDS011;56334;52.398;7.552;2023-03-23T13:25:49;7.10;;;1.92;;
69226;SDS011;56334;52.398;7.552;2023-03-23T13:28:31;5.30;;;1.42;;
69226;SDS011;56334;52.398;7.552;2023-03-23T13:30:59;8.20;;;1.80;;
69226;SDS011;56334;52.398;7.552;2023-03-23T13:33:31;6.95;;;1.35;;
69226;SDS011;56334;52.398;7.552;2023-03-23T13:36:02;6.70;;;1.50;;
69226;SDS011;56334;52.398;7.552;2023-03-23T13:38:32;5.43;;;1.38;;
69226;SDS011;56334;52.398;7.552;2023-03-23T13:40:58;7.70;;;1.60;;
69226;SDS011;56334;52.398;7.552;2023-03-23T13:43:34;6.45;;;1.63;;
69226;SDS011;56334;52.398;7.552;2023-03-23T13:48:44;9.25;;;1.40;;
69226;SDS011;56334;52.398;7.552;2023-03-23T13:51:25;5.57;;;1.48;;
69226;SDS011;56334;52.398;7.552;2023-03-23T13:54:04;7.60;;;1.70;;
69226;SDS011;56334;52.398;7.552;2023-03-23T13:56:36;7.68;;;1.55;;
69226;SDS011;56334;52.398;7.552;2023-03-23T14:02:41;9.07;;;1.50;;
69226;SDS011;56334;52.398;7.552;2023-03-23T14:04:42;7.75;;;1.90;;
69226;SDS011;56334;52.398;7.552;2023-03-23T14:07:15;8.40;;;1.60;;
69226;SDS011;56334;52.398;7.552;2023-03-23T14:09:45;8.88;;;1.60;;
69226;SDS011;56334;52.398;7.552;2023-03-23T14:12:21;8.45;;;1.80;;
69226;SDS011;56334;52.398;7.552;2023-03-23T14:14:49;7.97;;;1.67;;
69226;SDS011;56334;52.398;7.552;2023-03-23T14:17:17;8.82;;;1.80;;
69226;SDS011;56334;52.398;7.552;2023-03-23T14:19:51;5.72;;;1.38;;
69226;SDS011;56334;52.398;7.552;2023-03-23T14:22:19;7.30;;;1.67;;
69226;SDS011;56334;52.398;7.552;2023-03-23T14:24:45;6.65;;;1.40;;
69226;SDS011;56334;52.398;7.552;2023-03-23T14:27:19;5.85;;;1.65;;
69226;SDS011;56334;52.398;7.552;2023-03-23T14:29:46;5.82;;;1.30;;
69226;SDS011;56334;52.398;7.552;2023-03-23T14:32:22;7.07;;;1.50;;
69226;SDS011;56334;52.398;7.552;2023-03-23T14:34:51;6.32;;;1.35;;
69226;SDS011;56334;52.398;7.552;2023-03-23T14:37:17;7.45;;;1.70;;
69226;SDS011;56334;52.398;7.552;2023-03-23T14:39:47;9.13;;;1.52;;
69226;SDS011;56334;52.398;7.552;2023-03-23T14:42:15;6.47;;;1.70;;
69226;SDS011;56334;52.398;7.552;2023-03-23T14:44:44;8.52;;;1.98;;
69226;SDS011;56334;52.398;7.552;2023-03-23T14:47:13;7.85;;;1.52;;
69226;SDS011;56334;52.398;7.552;2023-03-23T14:49:42;8.02;;;1.52;;
69226;SDS011;56334;52.398;7.552;2023-03-23T14:54:35;8.93;;;1.50;;
69226;SDS011;56334;52.398;7.552;2023-03-23T14:57:49;8.10;;;1.30;;
69226;SDS011;56334;52.398;7.552;2023-03-23T14:59:49;11.18;;;1.55;;
69226;SDS011;56334;52.398;7.552;2023-03-23T15:04:43;5.80;;;1.13;;
69226;SDS011;56334;52.398;7.552;2023-03-23T15:07:10;5.75;;;1.02;;
69226;SDS011;56334;52.398;7.552;2023-03-23T15:09:39;7.22;;;1.25;;
69226;SDS011;56334;52.398;7.552;2023-03-23T15:12:06;6.68;;;1.42;;
69226;SDS011;56334;52.398;7.552;2023-03-23T15:14:42;6.70;;;1.27;;
69226;SDS011;56334;52.398;7.552;2023-03-23T15:17:17;9.10;;;1.40;;
69226;SDS011;56334;52.398;7.552;2023-03-23T15:19:44;5.90;;;1.30;;
69226;SDS011;56334;52.398;7.552;2023-03-23T15:22:16;6.75;;;1.40;;
69226;SDS011;56334;52.398;7.552;2023-03-23T15:24:44;9.63;;;1.60;;
69226;SDS011;56334;52.398;7.552;2023-03-23T15:29:50;6.32;;;1.27;;
69226;SDS011;56334;52.398;7.552;2023-03-23T15:32:27;8.82;;;1.60;;
69226;SDS011;56334;52.398;7.552;2023-03-23T15:34:54;5.75;;;1.30;;
69226;SDS011;56334;52.398;7.552;2023-03-23T15:37:28;7.47;;;1.80;;
69226;SDS011;56334;52.398;7.552;2023-03-23T15:39:55;6.00;;;1.42;;
69226;SDS011;56334;52.398;7.552;2023-03-23T15:45:34;7.25;;;1.48;;
69226;SDS011;56334;52.398;7.552;2023-03-23T15:50:31;7.53;;;1.55;;
69226;SDS011;56334;52.398;7.552;2023-03-23T15:52:58;7.50;;;1.77;;
69226;SDS011;56334;52.398;7.552;2023-03-23T15:55:28;6.15;;;1.40;;
69226;SDS011;56334;52.398;7.552;2023-03-23T15:57:56;7.50;;;1.63;;
69226;SDS011;56334;52.398;7.552;2023-03-23T16:00:26;7.50;;;1.73;;
69226;SDS011;56334;52.398;7.552;2023-03-23T16:02:53;8.20;;;1.67;;
69226;SDS011;56334;52.398;7.552;2023-03-23T16:05:20;8.30;;;1.98;;
69226;SDS011;56334;52.398;7.552;2023-03-23T16:07:46;6.70;;;1.67;;
69226;SDS011;56334;52.398;7.552;2023-03-23T16:10:16;6.65;;;1.90;;
69226;SDS011;56334;52.398;7.552;2023-03-23T16:12:43;7.18;;;1.85;;
69226;SDS011;56334;52.398;7.552;2023-03-23T16:15:09;7.72;;;2.20;;
69226;SDS011;56334;52.398;7.552;2023-03-23T16:17:35;12.60;;;2.13;;
69226;SDS011;56334;52.398;7.552;2023-03-23T16:20:02;8.30;;;2.20;;
69226;SDS011;56334;52.398;7.552;2023-03-23T16:22:34;9.40;;;2.17;;
69226;SDS011;56334;52.398;7.552;2023-03-23T16:25:00;7.63;;;2.10;;
69226;SDS011;56334;52.398;7.552;2023-03-23T16:27:26;7.80;;;2.00;;
69226;SDS011;56334;52.398;7.552;2023-03-23T16:29:52;10.38;;;2.63;;
69226;SDS011;56334;52.398;7.552;2023-03-23T16:32:18;8.48;;;2.50;;
69226;SDS011;56334;52.398;7.552;2023-03-23T16:34:44;8.68;;;2.40;;
69226;SDS011;56334;52.398;7.552;2023-03-23T16:37:10;8.80;;;2.35;;
69226;SDS011;56334;52.398;7.552;2023-03-23T16:39:36;7.43;;;2.03;;
69226;SDS011;56334;52.398;7.552;2023-03-23T16:42:02;7.47;;;2.15;;
69226;SDS011;56334;52.398;7.552;2023-03-23T16:44:28;9.35;;;2.10;;
69226;SDS011;56334;52.398;7.552;2023-03-23T16:46:54;7.75;;;2.20;;
69226;SDS011;56334;52.398;7.552;2023-03-23T16:49:20;7.00;;;1.90;;
69226;SDS011;56334;52.398;7.552;2023-03-23T16:51:46;5.97;;;1.77;;
69226;SDS011;56334;52.398;7.552;2023-03-23T16:54:12;7.57;;;2.55;;
69226;SDS011;56334;52.398;7.552;2023-03-23T16:56:38;11.10;;;4.10;;
69226;SDS011;56334;52.398;7.552;2023-03-23T16:59:04;10.32;;;3.75;;
69226;SDS011;56334;52.398;7.552;2023-03-23T17:01:32;8.05;;;2.70;;
69226;SDS011;56334;52.398;7.552;2023-03-23T17:03:58;11.25;;;4.50;;
69226;SDS011;56334;52.398;7.552;2023-03-23T17:06:24;8.35;;;2.70;;
69226;SDS011;56334;52.398;7.552;2023-03-23T17:08:50;8.48;;;2.50;;
69226;SDS011;56334;52.398;7.552;2023-03-23T17:11:16;8.55;;;2.20;;
69226;SDS011;56334;52.398;7.552;2023-03-23T17:13:42;9.38;;;3.38;;
69226;SDS011;56334;52.398;7.552;2023-03-23T17:16:08;11.50;;;3.75;;
69226;SDS011;56334;52.398;7.552;2023-03-23T17:18:34;10.00;;;4.53;;
69226;SDS011;56334;52.398;7.552;2023-03-23T17:21:00;10.93;;;4.25;;
69226;SDS011;56334;52.398;7.552;2023-03-23T17:23:26;8.77;;;2.90;;
69226;SDS011;56334;52.398;7.552;2023-03-23T17:25:52;10.65;;;2.85;;
69226;SDS011;56334;52.398;7.552;2023-03-23T17:28:18;9.65;;;2.80;;
69226;SDS011;56334;52.398;7.552;2023-03-23T17:30:44;7.93;;;2.50;;
69226;SDS011;56334;52.398;7.552;2023-03-23T17:33:11;8.45;;;2.45;;
69226;SDS011;56334;52.398;7.552;2023-03-23T17:35:37;8.88;;;2.78;;
69226;SDS011;56334;52.398;7.552;2023-03-23T17:38:05;9.15;;;2.50;;
69226;SDS011;56334;52.398;7.552;2023-03-23T17:40:31;9.50;;;3.08;;
69226;SDS011;56334;52.398;7.552;2023-03-23T17:42:57;8.27;;;2.50;;
69226;SDS011;56334;52.398;7.552;2023-03-23T17:45:23;8.75;;;2.88;;
69226;SDS011;56334;52.398;7.552;2023-03-23T17:47:49;7.55;;;2.35;;
69226;SDS011;56334;52.398;7.552;2023-03-23T17:50:15;10.80;;;3.65;;
69226;SDS011;56334;52.398;7.552;2023-03-23T17:52:41;11.45;;;3.53;;
69226;SDS011;56334;52.398;7.552;2023-03-23T17:55:08;8.75;;;3.17;;
69226;SDS011;56334;52.398;7.552;2023-03-23T17:57:34;9.68;;;3.97;;
69226;SDS011;56334;52.398;7.552;2023-03-23T18:00:01;11.60;;;4.22;;
69226;SDS011;56334;52.398;7.552;2023-03-23T18:02:27;8.57;;;3.10;;
69226;SDS011;56334;52.398;7.552;2023-03-23T18:04:55;10.25;;;3.13;;
69226;SDS011;56334;52.398;7.552;2023-03-23T18:07:21;11.23;;;3.40;;
69226;SDS011;56334;52.398;7.552;2023-03-23T18:09:48;8.95;;;3.13;;
69226;SDS011;56334;52.398;7.552;2023-03-23T18:12:14;8.75;;;2.72;;
69226;SDS011;56334;52.398;7.552;2023-03-23T18:14:41;10.90;;;4.13;;
69226;SDS011;56334;52.398;7.552;2023-03-23T18:17:08;10.80;;;4.30;;
69226;SDS011;56334;52.398;7.552;2023-03-23T18:19:34;11.68;;;5.00;;
69226;SDS011;56334;52.398;7.552;2023-03-23T18:22:00;10.30;;;3.80;;
69226;SDS011;56334;52.398;7.552;2023-03-23T18:24:26;10.75;;;3.90;;
69226;SDS011;56334;52.398;7.552;2023-03-23T18:26:52;13.68;;;4.10;;
69226;SDS011;56334;52.398;7.552;2023-03-23T18:29:20;12.00;;;4.13;;
69226;SDS011;56334;52.398;7.552;2023-03-23T18:31:46;10.20;;;4.10;;
69226;SDS011;56334;52.398;7.552;2023-03-23T18:34:12;11.00;;;4.60;;
69226;SDS011;56334;52.398;7.552;2023-03-23T18:36:38;12.60;;;4.97;;
69226;SDS011;56334;52.398;7.552;2023-03-23T18:39:06;13.00;;;5.18;;
69226;SDS011;56334;52.398;7.552;2023-03-23T18:41:34;13.88;;;5.10;;
69226;SDS011;56334;52.398;7.552;2023-03-23T18:44:00;14.30;;;5.82;;
69226;SDS011;56334;52.398;7.552;2023-03-23T18:46:27;13.63;;;6.60;;
69226;SDS011;56334;52.398;7.552;2023-03-23T18:48:53;13.48;;;5.47;;
69226;SDS011;56334;52.398;7.552;2023-03-23T18:51:21;14.02;;;6.25;;
69226;SDS011;56334;52.398;7.552;2023-03-23T18:53:47;14.73;;;8.77;;